Time;durP1;ratioP1;P1;durP2;ratioP2;P2;SDS_P1;SDS_P2;PMS_P1;PMS_P2;Temp;Humidity;BMP_temperature;BMP_pressure;BME280_temperature;BME280_humidity;BME280_pressure;Samples;Min_cycle;Max_cycle;Signal;HPM_P1;HPM_P2
2021/01/19 00:00:50;;;;;;;11.30;5.10;;;;;;;;;;10443117;28;20580;-79
2021/01/19 00:05:52;;;;;;;12.60;5.23;;;;;;;;;;10445488;28;20642;-79
2021/01/19 00:10:55;;;;;;;15.43;5.23;;;;;;;;;;10443980;28;20225;-79
2021/01/19 00:15:57;;;;;;;12.93;4.90;;;;;;;;;;10446881;28;20246;-79
2021/01/19 00:20:59;;;;;;;12.93;4.87;;;;;;;;;;10441966;28;20564;-79
2021/01/19 00:26:03;;;;;;;11.73;4.50;;;;;;;;;;10438351;28;20211;-79
2021/01/19 00:31:05;;;;;;;13.33;4.43;;;;;;;;;;10450469;28;20210;-79
2021/01/19 00:36:07;;;;;;;10.23;3.97;;;;;;;;;;10438452;28;20293;-80
2021/01/19 00:41:10;;;;;;;11.20;3.30;;;;;;;;;;10440967;28;20237;-83
2021/01/19 00:46:12;;;;;;;13.40;4.10;;;;;;;;;;10435050;28;20777;-84
2021/01/19 00:51:14;;;;;;;10.97;3.83;;;;;;;;;;10441893;28;20690;-83
2021/01/19 00:56:18;;;;;;;13.73;3.90;;;;;;;;;;10452269;28;20433;-83
2021/01/19 01:06:36;;;;;;;13.00;3.37;;;;;;;;;;10386521;23;20362;-77
2021/01/19 01:11:40;;;;;;;11.13;3.57;;;;;;;;;;10347456;28;20332;-78
2021/01/19 01:16:42;;;;;;;12.43;3.20;;;;;;;;;;10341045;28;20216;-77
2021/01/19 01:21:44;;;;;;;9.60;2.97;;;;;;;;;;10388555;22;20312;-81
2021/01/19 01:26:47;;;;;;;10.13;3.50;;;;;;;;;;10276983;28;20793;-78
2021/01/19 01:31:48;;;;;;;6.70;2.77;;;;;;;;;;10278867;28;20214;-80
2021/01/19 01:36:50;;;;;;;8.77;3.03;;;;;;;;;;10284968;28;20675;-80
2021/01/19 01:41:53;;;;;;;8.97;3.10;;;;;;;;;;10280511;28;20244;-79
2021/01/19 01:46:55;;;;;;;8.20;2.90;;;;;;;;;;10282296;28;20220;-78
2021/01/19 01:51:57;;;;;;;10.80;3.10;;;;;;;;;;10279806;28;20214;-79
2021/01/19 01:57:00;;;;;;;11.30;3.30;;;;;;;;;;10277412;28;20218;-80
2021/01/19 02:02:09;;;;;;;11.20;2.87;;;;;;;;;;10272603;28;20256;-79
2021/01/19 02:07:18;;;;;;;12.53;2.87;;;;;;;;;;10241049;28;20241;-80
2021/01/19 02:12:25;;;;;;;13.00;3.03;;;;;;;;;;10234837;28;20305;-79
2021/01/19 02:17:32;;;;;;;7.43;3.03;;;;;;;;;;10224161;28;20219;-80
2021/01/19 02:22:52;;;;;;;10.27;3.17;;;;;;;;;;10245573;28;20785;-80
2021/01/19 02:28:04;;;;;;;11.67;3.00;;;;;;;;;;10220389;28;20218;-80
2021/01/19 02:33:09;;;;;;;15.17;3.30;;;;;;;;;;10231492;28;22530;-79
2021/01/19 02:38:16;;;;;;;15.67;3.80;;;;;;;;;;10238431;28;20219;-79
2021/01/19 02:43:20;;;;;;;9.70;3.37;;;;;;;;;;10236124;28;20245;-80
2021/01/19 02:48:24;;;;;;;16.77;3.77;;;;;;;;;;10231739;28;20222;-79
2021/01/19 02:53:26;;;;;;;11.77;3.30;;;;;;;;;;10231954;28;20226;-79
2021/01/19 02:58:34;;;;;;;11.73;3.27;;;;;;;;;;10238856;28;20221;-79
2021/01/19 03:03:38;;;;;;;10.07;3.17;;;;;;;;;;10217863;28;20257;-79
2021/01/19 03:08:41;;;;;;;11.70;3.37;;;;;;;;;;10236511;28;20258;-79
2021/01/19 03:13:44;;;;;;;10.13;3.20;;;;;;;;;;10242760;28;20365;-79
2021/01/19 03:18:48;;;;;;;12.53;3.50;;;;;;;;;;10235768;28;20508;-79
2021/01/19 03:23:50;;;;;;;12.63;3.97;;;;;;;;;;10208749;28;20265;-79
2021/01/19 03:28:52;;;;;;;10.47;3.47;;;;;;;;;;10235701;28;20219;-79
2021/01/19 03:33:55;;;;;;;10.20;3.43;;;;;;;;;;10239325;28;20222;-80
2021/01/19 03:38:56;;;;;;;11.60;3.60;;;;;;;;;;10239073;28;20217;-79
2021/01/19 03:43:58;;;;;;;7.07;3.70;;;;;;;;;;10221209;28;20725;-79
2021/01/19 03:49:01;;;;;;;9.40;3.70;;;;;;;;;;10231607;28;20211;-78
2021/01/19 03:54:04;;;;;;;8.27;3.80;;;;;;;;;;10234714;28;20602;-78
2021/01/19 03:59:06;;;;;;;9.70;3.90;;;;;;;;;;10233829;28;20222;-80
2021/01/19 04:04:09;;;;;;;12.50;3.90;;;;;;;;;;10216829;28;20916;-80
2021/01/19 04:09:11;;;;;;;9.47;4.00;;;;;;;;;;10231648;28;20290;-79
2021/01/19 04:14:14;;;;;;;9.23;3.90;;;;;;;;;;10218371;28;20289;-79
2021/01/19 04:19:16;;;;;;;5.63;3.47;;;;;;;;;;10234245;28;20217;-79
2021/01/19 04:24:18;;;;;;;8.80;3.30;;;;;;;;;;10226994;28;20234;-80
2021/01/19 04:29:20;;;;;;;7.83;3.67;;;;;;;;;;10233916;28;20622;-79
2021/01/19 04:34:23;;;;;;;9.77;3.50;;;;;;;;;;10228433;28;20221;-79
2021/01/19 04:39:25;;;;;;;6.27;3.70;;;;;;;;;;10228312;28;20223;-79
2021/01/19 04:44:27;;;;;;;7.47;3.83;;;;;;;;;;10225732;28;20241;-79
2021/01/19 04:49:30;;;;;;;7.20;3.30;;;;;;;;;;10225577;28;20715;-78
2021/01/19 04:54:36;;;;;;;7.13;3.60;;;;;;;;;;10224834;28;20246;-79
2021/01/19 04:59:38;;;;;;;6.17;3.70;;;;;;;;;;10229478;28;20229;-79
2021/01/19 05:05:06;;;;;;;5.70;2.93;;;;;;;;;;10225017;28;20326;-79
2021/01/19 05:10:11;;;;;;;5.13;3.20;;;;;;;;;;10213437;28;20317;-80
2021/01/19 05:15:14;;;;;;;4.80;3.07;;;;;;;;;;10209747;28;20313;-80
2021/01/19 05:20:17;;;;;;;5.30;3.10;;;;;;;;;;10219321;28;20676;-79
2021/01/19 05:25:22;;;;;;;5.27;3.00;;;;;;;;;;10224673;28;20401;-79
2021/01/19 05:30:25;;;;;;;4.70;2.90;;;;;;;;;;10230084;28;20222;-78
2021/01/19 05:35:28;;;;;;;5.40;2.87;;;;;;;;;;10233970;28;20223;-79
2021/01/19 05:40:29;;;;;;;4.57;3.10;;;;;;;;;;10218703;28;20597;-79
2021/01/19 05:45:31;;;;;;;4.33;3.00;;;;;;;;;;10236578;28;20623;-74
2021/01/19 05:50:36;;;;;;;5.57;2.90;;;;;;;;;;10246312;28;20216;-75
2021/01/19 05:55:40;;;;;;;5.10;3.07;;;;;;;;;;10242734;28;20222;-77
2021/01/19 06:00:43;;;;;;;6.20;3.20;;;;;;;;;;10243685;28;20225;-74
2021/01/19 06:05:46;;;;;;;6.53;3.20;;;;;;;;;;10236714;28;20237;-78
2021/01/19 06:10:48;;;;;;;5.87;2.87;;;;;;;;;;10219599;28;20676;-77
2021/01/19 06:15:50;;;;;;;7.30;2.93;;;;;;;;;;10213888;28;20226;-74
2021/01/19 06:20:52;;;;;;;6.70;2.77;;;;;;;;;;10222225;28;20214;-76
2021/01/19 06:26:03;;;;;;;7.37;2.83;;;;;;;;;;10221339;28;20549;-79
2021/01/19 06:31:10;;;;;;;5.97;2.90;;;;;;;;;;10214130;28;20771;-75
2021/01/19 06:36:15;;;;;;;5.23;2.70;;;;;;;;;;10227275;28;20221;-78
2021/01/19 06:41:18;;;;;;;5.03;2.80;;;;;;;;;;10233183;28;20230;-75
2021/01/19 06:46:20;;;;;;;5.07;2.83;;;;;;;;;;10222509;28;20219;-78
2021/01/19 06:51:22;;;;;;;5.37;2.70;;;;;;;;;;10210464;28;20227;-76
2021/01/19 06:56:30;;;;;;;4.60;2.50;;;;;;;;;;10222917;28;20266;-77
2021/01/19 07:01:32;;;;;;;5.57;2.30;;;;;;;;;;10225670;28;20245;-80
2021/01/19 07:06:55;;;;;;;4.50;2.33;;;;;;;;;;10215809;28;20214;-75
2021/01/19 07:12:07;;;;;;;7.63;2.57;;;;;;;;;;10214553;28;20641;-76
2021/01/19 07:17:12;;;;;;;6.27;2.57;;;;;;;;;;10212066;28;20599;-75
2021/01/19 07:22:48;;;;;;;6.33;2.27;;;;;;;;;;10234037;28;20234;-80
2021/01/19 07:27:51;;;;;;;4.60;2.23;;;;;;;;;;10216567;28;20243;-75
2021/01/19 07:32:55;;;;;;;4.30;2.10;;;;;;;;;;10216146;28;20226;-74
2021/01/19 07:37:58;;;;;;;3.50;1.80;;;;;;;;;;10220037;28;20852;-74
2021/01/19 07:43:00;;;;;;;3.17;1.80;;;;;;;;;;10211517;28;20611;-75
2021/01/19 07:48:07;;;;;;;3.87;1.83;;;;;;;;;;10214848;28;20218;-74
2021/01/19 07:53:10;;;;;;;5.70;1.67;;;;;;;;;;10218396;28;20747;-74
2021/01/19 07:58:16;;;;;;;3.63;1.77;;;;;;;;;;10208041;28;20709;-74
2021/01/19 08:03:26;;;;;;;3.77;1.70;;;;;;;;;;10214569;28;22381;-73
2021/01/19 08:08:37;;;;;;;2.70;1.60;;;;;;;;;;10216236;28;20226;-75
2021/01/19 08:13:39;;;;;;;4.10;1.63;;;;;;;;;;10187711;28;20226;-74
2021/01/19 08:18:43;;;;;;;3.40;1.67;;;;;;;;;;10211847;28;20522;-75
2021/01/19 08:23:46;;;;;;;2.60;1.37;;;;;;;;;;10211304;28;20231;-75
2021/01/19 08:28:48;;;;;;;2.33;1.57;;;;;;;;;;10208421;28;20225;-75
2021/01/19 08:33:51;;;;;;;2.67;1.50;;;;;;;;;;10215714;28;20777;-75
2021/01/19 08:38:55;;;;;;;2.63;1.40;;;;;;;;;;10219496;28;20413;-75
2021/01/19 08:43:59;;;;;;;2.27;1.50;;;;;;;;;;10206576;28;20327;-75
2021/01/19 08:49:01;;;;;;;3.40;1.40;;;;;;;;;;10214962;28;20229;-75
2021/01/19 08:54:08;;;;;;;2.50;1.40;;;;;;;;;;10215550;28;21168;-75
2021/01/19 08:59:10;;;;;;;3.70;1.40;;;;;;;;;;10214935;28;20788;-75
2021/01/19 09:04:21;;;;;;;2.97;1.67;;;;;;;;;;10212360;28;20269;-75
2021/01/19 09:09:24;;;;;;;3.77;1.47;;;;;;;;;;10206902;28;20226;-75
2021/01/19 09:14:26;;;;;;;1.70;1.03;;;;;;;;;;10214093;28;20237;-76
2021/01/19 09:19:28;;;;;;;1.43;1.10;;;;;;;;;;10223143;28;21183;-75
2021/01/19 09:24:35;;;;;;;1.43;1.27;;;;;;;;;;10219222;28;20233;-76
2021/01/19 09:29:37;;;;;;;1.40;1.30;;;;;;;;;;10220202;28;20228;-75
2021/01/19 09:34:42;;;;;;;2.33;1.40;;;;;;;;;;10223663;28;20707;-75
2021/01/19 09:39:46;;;;;;;1.37;1.23;;;;;;;;;;10229312;28;20516;-75
2021/01/19 09:44:48;;;;;;;1.77;1.30;;;;;;;;;;10212128;28;20615;-75
2021/01/19 09:49:52;;;;;;;1.20;1.10;;;;;;;;;;10224238;28;20683;-75
2021/01/19 09:55:04;;;;;;;1.53;1.40;;;;;;;;;;10220645;28;20592;-75
2021/01/19 10:00:08;;;;;;;2.17;1.20;;;;;;;;;;10214572;28;20229;-76
2021/01/19 10:05:10;;;;;;;2.00;1.20;;;;;;;;;;10231421;28;20241;-75
2021/01/19 10:10:14;;;;;;;1.47;1.10;;;;;;;;;;10216946;28;20226;-76
2021/01/19 10:15:16;;;;;;;1.37;1.20;;;;;;;;;;10212737;28;20227;-75
2021/01/19 10:20:17;;;;;;;2.87;1.30;;;;;;;;;;10211241;28;20227;-76
2021/01/19 10:25:26;;;;;;;4.53;1.70;;;;;;;;;;10210758;28;20239;-75
2021/01/19 10:30:29;;;;;;;2.20;1.37;;;;;;;;;;10216972;28;20240;-76
2021/01/19 10:35:32;;;;;;;2.53;1.60;;;;;;;;;;10223374;28;20747;-75
2021/01/19 10:40:35;;;;;;;3.87;1.60;;;;;;;;;;10222120;28;20236;-76
2021/01/19 10:45:39;;;;;;;5.27;1.90;;;;;;;;;;10218584;28;20249;-76
2021/01/19 10:50:41;;;;;;;4.10;1.70;;;;;;;;;;10223885;28;20289;-75
2021/01/19 10:55:45;;;;;;;4.60;1.70;;;;;;;;;;10212366;28;20486;-75
2021/01/19 11:00:47;;;;;;;4.50;1.70;;;;;;;;;;10224817;28;20223;-75
2021/01/19 11:05:50;;;;;;;6.13;1.60;;;;;;;;;;10221916;28;20266;-76
2021/01/19 11:10:53;;;;;;;4.90;1.40;;;;;;;;;;10212132;28;20214;-74
2021/01/19 11:15:55;;;;;;;4.33;1.60;;;;;;;;;;10216526;28;20221;-75
2021/01/19 11:20:57;;;;;;;5.60;1.60;;;;;;;;;;10214531;28;20310;-75
2021/01/19 11:26:00;;;;;;;7.20;1.70;;;;;;;;;;10219525;28;20662;-75
2021/01/19 11:31:02;;;;;;;3.57;1.50;;;;;;;;;;10220517;28;20711;-75
2021/01/19 11:36:06;;;;;;;5.03;1.60;;;;;;;;;;10218757;28;20676;-75
2021/01/19 11:41:09;;;;;;;6.07;1.80;;;;;;;;;;10214871;28;20673;-75
2021/01/19 11:46:11;;;;;;;9.97;2.00;;;;;;;;;;10217908;28;20778;-75
2021/01/19 11:51:16;;;;;;;6.97;1.77;;;;;;;;;;10224514;28;20226;-75
2021/01/19 11:56:19;;;;;;;5.47;1.80;;;;;;;;;;10213025;28;20739;-76
2021/01/19 12:01:21;;;;;;;5.30;1.80;;;;;;;;;;10213403;28;20242;-76
2021/01/19 12:06:24;;;;;;;5.87;1.60;;;;;;;;;;10220514;28;20293;-76
2021/01/19 12:11:27;;;;;;;9.60;2.20;;;;;;;;;;10216392;28;20229;-74
2021/01/19 12:16:29;;;;;;;10.47;2.20;;;;;;;;;;10210757;28;20218;-76
2021/01/19 12:21:31;;;;;;;7.43;2.10;;;;;;;;;;10218614;28;20309;-76
2021/01/19 12:26:33;;;;;;;6.73;2.03;;;;;;;;;;10218801;28;20502;-75
2021/01/19 12:31:35;;;;;;;11.20;2.47;;;;;;;;;;10223980;28;20568;-75
2021/01/19 12:36:38;;;;;;;9.33;1.93;;;;;;;;;;10217993;28;20229;-75
2021/01/19 12:41:40;;;;;;;5.97;2.20;;;;;;;;;;10220029;28;20238;-75
2021/01/19 12:46:42;;;;;;;9.73;2.40;;;;;;;;;;10215730;28;20226;-75
2021/01/19 12:51:45;;;;;;;8.87;2.30;;;;;;;;;;10235862;28;20682;-75
2021/01/19 12:56:47;;;;;;;9.90;2.73;;;;;;;;;;10216340;28;20223;-75
2021/01/19 13:01:49;;;;;;;9.43;2.77;;;;;;;;;;10220022;28;20234;-75
2021/01/19 13:06:51;;;;;;;10.97;2.63;;;;;;;;;;10224276;28;20231;-75
2021/01/19 13:11:54;;;;;;;10.10;2.63;;;;;;;;;;10223197;28;20225;-75
2021/01/19 13:16:57;;;;;;;8.40;2.53;;;;;;;;;;10227972;28;20265;-75
2021/01/19 13:21:59;;;;;;;8.27;2.60;;;;;;;;;;10233315;28;20241;-74
2021/01/19 13:27:02;;;;;;;9.27;2.30;;;;;;;;;;10229195;28;20226;-76
2021/01/19 13:32:04;;;;;;;10.80;2.30;;;;;;;;;;10231889;28;20619;-75
2021/01/19 13:37:07;;;;;;;8.83;2.50;;;;;;;;;;10216931;28;20222;-75
2021/01/19 13:42:09;;;;;;;8.77;2.17;;;;;;;;;;10235025;28;20230;-75
2021/01/19 13:47:11;;;;;;;11.60;2.70;;;;;;;;;;10207454;28;20223;-75
2021/01/19 13:52:13;;;;;;;8.43;2.13;;;;;;;;;;10227187;28;20227;-75
2021/01/19 13:57:16;;;;;;;11.60;2.50;;;;;;;;;;10226843;28;20238;-75
2021/01/19 14:02:18;;;;;;;10.47;2.17;;;;;;;;;;10220905;28;20266;-74
2021/01/19 14:07:20;;;;;;;10.70;2.57;;;;;;;;;;10227388;28;20582;-74
2021/01/19 14:12:23;;;;;;;9.33;2.90;;;;;;;;;;10222226;28;20226;-74
2021/01/19 14:17:27;;;;;;;12.03;2.53;;;;;;;;;;10216428;28;20217;-74
2021/01/19 14:22:30;;;;;;;9.97;2.37;;;;;;;;;;10232035;28;20334;-75
2021/01/19 14:27:35;;;;;;;11.20;2.60;;;;;;;;;;10228066;28;20221;-74
2021/01/19 14:32:38;;;;;;;9.87;2.33;;;;;;;;;;10234127;28;20592;-75
2021/01/19 14:37:40;;;;;;;7.87;2.17;;;;;;;;;;10221805;28;20601;-76
2021/01/19 14:42:43;;;;;;;9.47;2.23;;;;;;;;;;10213919;28;20231;-76
2021/01/19 14:47:45;;;;;;;7.13;1.80;;;;;;;;;;10219918;28;20708;-76
2021/01/19 14:52:47;;;;;;;5.07;2.13;;;;;;;;;;10226103;28;20226;-76
2021/01/19 14:57:50;;;;;;;6.80;2.20;;;;;;;;;;10226911;28;20218;-75
2021/01/19 15:02:54;;;;;;;5.17;1.70;;;;;;;;;;10211598;28;20239;-76
2021/01/19 15:07:56;;;;;;;4.13;1.47;;;;;;;;;;10225798;28;20313;-76
2021/01/19 15:13:01;;;;;;;3.83;1.50;;;;;;;;;;10228501;28;20231;-75
2021/01/19 15:18:03;;;;;;;3.80;1.57;;;;;;;;;;10235125;28;20213;-76
2021/01/19 15:23:05;;;;;;;4.73;1.53;;;;;;;;;;10229996;28;20235;-76
2021/01/19 15:28:08;;;;;;;2.90;1.30;;;;;;;;;;10221790;28;20230;-76
2021/01/19 15:33:10;;;;;;;4.30;1.40;;;;;;;;;;10229237;28;20225;-75
2021/01/19 15:38:12;;;;;;;4.37;1.60;;;;;;;;;;10223926;28;20222;-76
2021/01/19 15:43:14;;;;;;;3.80;1.40;;;;;;;;;;10233275;28;20621;-76
2021/01/19 15:48:16;;;;;;;2.67;1.20;;;;;;;;;;10219612;28;20221;-75
2021/01/19 15:53:18;;;;;;;4.00;1.10;;;;;;;;;;10218100;28;20862;-76
2021/01/19 15:58:21;;;;;;;1.73;1.10;;;;;;;;;;10218755;28;20676;-75
2021/01/19 16:03:23;;;;;;;3.87;1.30;;;;;;;;;;10228591;28;20242;-75
2021/01/19 16:08:25;;;;;;;5.40;1.50;;;;;;;;;;10235129;28;20640;-76
2021/01/19 16:13:27;;;;;;;4.47;1.60;;;;;;;;;;10220861;28;20252;-75
2021/01/19 16:18:30;;;;;;;5.47;1.67;;;;;;;;;;10223459;28;20223;-75
2021/01/19 16:23:32;;;;;;;7.57;1.77;;;;;;;;;;10213271;28;20246;-75
2021/01/19 16:28:35;;;;;;;4.63;1.50;;;;;;;;;;10232318;28;20210;-75
2021/01/19 16:33:38;;;;;;;3.30;1.50;;;;;;;;;;10219593;28;20706;-75
2021/01/19 16:38:40;;;;;;;7.47;1.70;;;;;;;;;;10224189;28;20565;-76
2021/01/19 16:43:44;;;;;;;5.27;1.70;;;;;;;;;;10224057;28;20242;-74
2021/01/19 16:48:47;;;;;;;7.80;1.90;;;;;;;;;;10215827;28;20227;-74
2021/01/19 16:53:49;;;;;;;9.17;1.83;;;;;;;;;;10230861;28;20234;-74
2021/01/19 16:58:52;;;;;;;5.83;1.93;;;;;;;;;;10219056;28;20234;-75
2021/01/19 17:03:54;;;;;;;8.37;2.40;;;;;;;;;;10219793;28;20243;-75
2021/01/19 17:08:57;;;;;;;6.23;1.90;;;;;;;;;;10221667;28;20294;-75
2021/01/19 17:13:59;;;;;;;4.40;1.60;;;;;;;;;;10230556;28;20289;-74
2021/01/19 17:19:01;;;;;;;4.87;1.70;;;;;;;;;;10219789;28;20214;-76
2021/01/19 17:24:04;;;;;;;5.30;1.93;;;;;;;;;;10223688;28;20639;-76
2021/01/19 17:29:07;;;;;;;5.97;2.20;;;;;;;;;;10207976;28;20972;-75
2021/01/19 17:34:09;;;;;;;5.53;2.40;;;;;;;;;;10225345;28;20221;-76
2021/01/19 17:39:14;;;;;;;5.90;2.30;;;;;;;;;;10231431;28;20222;-76
2021/01/19 17:44:17;;;;;;;4.70;2.03;;;;;;;;;;10219951;28;20469;-76
2021/01/19 17:49:18;;;;;;;6.87;2.33;;;;;;;;;;10221914;28;20222;-75
2021/01/19 17:54:20;;;;;;;5.27;2.20;;;;;;;;;;10227297;28;20237;-75
2021/01/19 17:59:23;;;;;;;4.97;2.90;;;;;;;;;;10230979;28;20305;-76
2021/01/19 18:04:25;;;;;;;7.33;3.17;;;;;;;;;;10230836;28;20260;-75
2021/01/19 18:09:27;;;;;;;4.20;2.40;;;;;;;;;;10227338;28;20223;-76
2021/01/19 18:14:29;;;;;;;4.37;2.27;;;;;;;;;;10228092;28;20222;-75
2021/01/19 18:19:31;;;;;;;6.43;2.53;;;;;;;;;;10225471;28;20223;-78
2021/01/19 18:24:33;;;;;;;7.30;2.30;;;;;;;;;;10232927;28;20324;-77
2021/01/19 18:29:36;;;;;;;5.67;2.20;;;;;;;;;;10236116;28;20649;-77
2021/01/19 18:34:39;;;;;;;4.70;2.00;;;;;;;;;;10219784;28;20218;-76
2021/01/19 18:39:45;;;;;;;3.63;1.80;;;;;;;;;;10233906;28;20225;-77
2021/01/19 18:44:48;;;;;;;5.57;1.87;;;;;;;;;;10218688;28;20668;-77
2021/01/19 18:49:51;;;;;;;5.03;1.83;;;;;;;;;;10238052;28;20217;-77
2021/01/19 18:54:53;;;;;;;7.80;1.73;;;;;;;;;;10232262;28;20218;-76
2021/01/19 18:59:56;;;;;;;8.30;1.80;;;;;;;;;;10220663;28;20687;-75
2021/01/19 19:04:58;;;;;;;4.47;1.80;;;;;;;;;;10224171;28;20854;-75
2021/01/19 19:10:00;;;;;;;4.13;1.80;;;;;;;;;;10228392;28;20321;-76
2021/01/19 19:15:06;;;;;;;4.53;1.60;;;;;;;;;;10226450;28;20785;-77
2021/01/19 19:20:10;;;;;;;4.37;2.10;;;;;;;;;;10225043;28;20699;-77
2021/01/19 19:25:15;;;;;;;4.23;2.00;;;;;;;;;;10220697;28;20242;-75
2021/01/19 19:30:19;;;;;;;5.00;2.30;;;;;;;;;;10194645;28;22354;-76
2021/01/19 19:40:40;;;;;;;4.50;2.73;;;;;;;;;;10386159;23;20240;-81
2021/01/19 19:45:43;;;;;;;9.43;3.20;;;;;;;;;;10379144;28;20237;-81
2021/01/19 19:50:55;;;;;;;5.67;3.83;;;;;;;;;;10363993;28;20220;-80
2021/01/19 20:07:20;;;;;;;8.30;4.90;;;;;;;;;;10405228;23;20241;-81
2021/01/19 20:12:22;;;;;;;9.03;5.07;;;;;;;;;;10303978;28;20778;-82
2021/01/19 20:17:24;;;;;;;7.70;4.87;;;;;;;;;;10295437;28;20592;-82
2021/01/19 20:22:27;;;;;;;8.10;4.80;;;;;;;;;;10303675;28;20248;-82
2021/01/19 20:27:29;;;;;;;6.50;4.00;;;;;;;;;;10297443;28;20668;-82
2021/01/19 20:32:34;;;;;;;6.00;4.27;;;;;;;;;;10299423;28;20228;-82
2021/01/19 20:37:38;;;;;;;7.67;4.37;;;;;;;;;;10319707;28;20216;-83
2021/01/19 20:42:44;;;;;;;7.83;4.47;;;;;;;;;;10306331;28;20217;-82
2021/01/19 20:47:46;;;;;;;6.60;3.73;;;;;;;;;;10300725;28;20208;-82
2021/01/19 20:52:49;;;;;;;7.40;4.23;;;;;;;;;;10297593;28;20217;-83
2021/01/19 20:57:51;;;;;;;7.67;4.20;;;;;;;;;;10296995;28;20225;-82
2021/01/19 21:02:53;;;;;;;7.50;4.17;;;;;;;;;;10285322;28;20245;-82
2021/01/19 21:07:56;;;;;;;9.47;4.30;;;;;;;;;;10296066;28;20633;-82
2021/01/19 21:12:58;;;;;;;7.93;4.00;;;;;;;;;;10301221;28;20233;-82
2021/01/19 21:18:00;;;;;;;7.33;4.13;;;;;;;;;;10296018;28;20221;-82
2021/01/19 21:23:03;;;;;;;7.67;4.00;;;;;;;;;;10301627;28;20852;-83
2021/01/19 21:28:06;;;;;;;7.43;4.00;;;;;;;;;;10304674;28;20581;-83
2021/01/19 21:33:08;;;;;;;7.80;4.37;;;;;;;;;;10277656;28;20893;-82
2021/01/19 21:38:12;;;;;;;7.73;4.47;;;;;;;;;;10288770;28;20300;-82
2021/01/19 21:43:14;;;;;;;8.53;4.50;;;;;;;;;;10290555;28;20234;-82
2021/01/19 21:48:16;;;;;;;11.03;4.43;;;;;;;;;;10285378;28;20678;-83
2021/01/19 21:53:19;;;;;;;8.17;4.20;;;;;;;;;;10295209;28;20654;-82
2021/01/19 21:58:21;;;;;;;11.30;4.77;;;;;;;;;;10288616;28;20563;-82
2021/01/19 22:03:23;;;;;;;6.67;4.00;;;;;;;;;;10287050;28;20253;-82
2021/01/19 22:08:26;;;;;;;13.27;5.07;;;;;;;;;;10288123;28;20312;-82
2021/01/19 22:13:28;;;;;;;10.50;4.40;;;;;;;;;;10284236;28;20226;-82
2021/01/19 22:18:30;;;;;;;8.37;4.37;;;;;;;;;;10284084;28;20214;-82
2021/01/19 22:23:33;;;;;;;8.73;4.10;;;;;;;;;;10289439;28;20230;-83
2021/01/19 22:28:35;;;;;;;7.60;4.13;;;;;;;;;;10292213;28;20256;-83
2021/01/19 22:33:37;;;;;;;8.87;4.50;;;;;;;;;;10286609;28;20224;-82
2021/01/19 22:38:40;;;;;;;7.60;4.03;;;;;;;;;;10290183;28;20249;-83
2021/01/19 22:43:42;;;;;;;8.67;4.60;;;;;;;;;;10296563;28;20248;-84
2021/01/19 22:48:44;;;;;;;9.00;4.30;;;;;;;;;;10301295;28;20712;-83
2021/01/19 22:53:46;;;;;;;10.00;4.13;;;;;;;;;;10297477;28;20730;-83
2021/01/19 22:58:48;;;;;;;8.93;4.47;;;;;;;;;;10301145;28;20224;-83
2021/01/19 23:03:50;;;;;;;9.00;4.60;;;;;;;;;;10291971;28;20773;-83
2021/01/19 23:08:53;;;;;;;8.90;4.83;;;;;;;;;;10296222;28;23864;-82
2021/01/19 23:13:55;;;;;;;8.03;4.33;;;;;;;;;;10298033;28;20214;-82
2021/01/19 23:18:57;;;;;;;10.10;4.00;;;;;;;;;;10308249;28;20220;-83
2021/01/19 23:24:01;;;;;;;7.87;4.13;;;;;;;;;;10308169;28;20623;-81
2021/01/19 23:29:04;;;;;;;9.87;4.47;;;;;;;;;;10294376;28;20220;-82
2021/01/19 23:34:06;;;;;;;8.80;4.70;;;;;;;;;;10296464;28;20704;-82
2021/01/19 23:39:08;;;;;;;9.23;4.70;;;;;;;;;;10290845;28;20508;-83
2021/01/19 23:44:10;;;;;;;7.83;4.60;;;;;;;;;;10296359;28;20295;-83
2021/01/19 23:49:13;;;;;;;11.53;5.00;;;;;;;;;;10288236;28;20591;-82
2021/01/19 23:54:15;;;;;;;9.57;5.10;;;;;;;;;;10287301;28;20241;-84
2021/01/19 23:59:19;;;;;;;12.43;4.90;;;;;;;;;;10283482;28;20768;-83
